• Join FlightAware (Why Join?)
  • Login
  • US Flag 
01:00AM EDT


 

Airport Tracker/Info


-or-


 

Live Flight TrackerFlight Track Log ✈ JZA8592 ✈ 23-Apr-2013 ✈ CYYC - CYXE

Flight Track Log - Related Links

Times and Time Zones

All times are in EDT time to prevent confusion due to time zone crossing. See the JZA8592 flight status page for this flight to view local times or setup timezone preferences in your user account.

Time Position Orientation Groundspeed Altitude Reporting Facility
EDT Latitude Longitude Course Direction KTS MPH feet Rate Location/Type
12:53AM 51.1000 -114.0667 298° West 130 150 3,700  Level Edmonton Center
12:54AM 51.1167 -114.1167 298° West 180 207 5,700 2,100 Climbing Edmonton Center
12:55AM 51.1667 -114.1000 12° North 200 230 8,000 2,220 Climbing Edmonton Center
12:56AM 51.2167 -114.0667 23° Northeast 210 242 10,200 1,800 Climbing Edmonton Center
12:57AM 51.2500 -113.9667 62° Northeast 270 311 11,700 1,560 Climbing Edmonton Center
12:58AM 51.2833 -113.8667 62° Northeast 280 322 13,400 1,860 Climbing Edmonton Center
12:59AM 51.3333 -113.7667 51° Northeast 280 322 15,500 1,980 Climbing Edmonton Center
01:00AM 51.3667 -113.6667 62° Northeast 270 311 17,400 1,800 Climbing Edmonton Center
01:01AM 51.4167 -113.5333 59° Northeast 260 299 19,200 1,680 Climbing Edmonton Center
01:02AM 51.4333 -113.4500 72° East 250 288 20,800 1,500 Climbing Edmonton Center
01:03AM 51.4833 -113.3500 51° Northeast 250 288 22,300 1,080 Climbing Edmonton Center
01:04AM 51.5000 -113.2500 75° East 250 288 23,000 300 Climbing Edmonton Center
01:05AM 51.5333 -113.1167 68° East 280 322 23,000  Level Edmonton Center
01:06AM 51.5333 -112.9833 90° East 300 345 23,000  Level Edmonton Center
01:07AM 51.5667 -112.8500 68° East 300 345 23,000  Level Edmonton Center
01:08AM 51.5833 -112.7167 79° East 300 345 23,000  Level Edmonton Center
01:09AM 51.5833 -112.5833 90° East 310 357 23,000  Level Edmonton Center
01:10AM 51.6167 -112.4500 68° East 310 357 23,000  Level Edmonton Center
01:11AM 51.6167 -112.3167 90° East 310 357 23,000  Level Edmonton Center
01:12AM 51.6333 -112.1833 79° East 310 357 23,000  Level Edmonton Center
01:13AM 51.6500 -112.0500 79° East 310 357 23,000  Level Edmonton Center
01:14AM 51.6667 -111.8833 81° East 310 357 23,000  Level Edmonton Center
01:15AM 51.6833 -111.7500 79° East 310 357 23,000  Level Edmonton Center
01:16AM 51.7000 -111.6167 79° East 310 357 23,000  Level Edmonton Center
01:17AM 51.7000 -111.4833 90° East 310 357 23,000  Level Edmonton Center
01:18AM 51.7333 -111.3500 68° East 310 357 23,000  Level Edmonton Center
01:19AM 51.7333 -111.1833 90° East 320 368 23,000  Level Edmonton Center
01:20AM 51.7500 -111.0500 79° East 310 357 23,000  Level Edmonton Center
01:21AM 51.7667 -110.9167 79° East 310 357 23,000  Level Edmonton Center
01:22AM 51.7833 -110.7833 79° East 310 357 23,000  Level Edmonton Center
01:23AM 51.8000 -110.6500 79° East 310 357 23,000  Level Edmonton Center
01:24AM 51.8167 -110.5167 79° East 310 357 23,000  Level Edmonton Center
01:25AM 51.8167 -110.3833 90° East 310 357 23,000  Level Edmonton Center
01:26AM 51.8333 -110.2167 81° East 310 357 23,000  Level Edmonton Center
01:27AM 51.8500 -110.0833 79° East 310 357 23,000  Level Edmonton Center
01:28AM 51.8667 -109.9500 79° East 310 357 23,000  Level Edmonton Center
01:29AM 51.8833 -109.8167 79° East 310 357 23,000  Level Edmonton Center
01:30AM 51.8833 -109.6667 90° East 310 357 23,000  Level Edmonton Center
01:31AM 51.9000 -109.5167 80° East 320 368 23,000  Level Edmonton Center
01:32AM 51.9167 -109.3667 80° East 320 368 23,000  Level Edmonton Center
01:33AM 51.9333 -109.2333 78° East 320 368 23,000  Level Edmonton Center
01:34AM 51.9333 -109.1000 90° East 320 368 23,000  Level Edmonton Center
01:35AM 51.9500 -108.9333 81° East 320 368 23,000  Level Edmonton Center
01:36AM 51.9500 -108.8000 90° East 330 380 23,000  Level Edmonton Center
01:37AM 51.9500 -108.6333 90° East 330 380 23,000  Level Edmonton Center
01:38AM 51.9333 -108.5000 101° East 330 380 23,000  Level Edmonton Center
01:39AM 51.9500 -108.3333 81° East 330 380 23,000  Level Edmonton Center
01:40AM 51.9500 -108.2000 90° East 330 380 23,000 -360 Level Edmonton Center
01:41AM 51.9500 -108.0333 90° East 340 391 22,300 -1,260 Descending Edmonton Center
01:42AM 51.9500 -107.8667 90° East 360 414 20,500 -1,800 Descending Edmonton Center
01:43AM 51.9500 -107.7000 90° East 360 414 18,800 -1,620 Descending Edmonton Center
01:44AM 51.9500 -107.5333 90° East 360 414 17,300 -1,680 Descending Edmonton Center
01:45AM 51.9500 -107.3833 90° East 350 403 15,500 -1,740 Descending Edmonton Center
01:46AM 51.9333 -107.2167 99° East 350 403 13,900 -1,680 Descending Edmonton Center
01:47AM 51.9500 -107.0667 80° East 350 403 12,200 -1,620 Descending Edmonton Center
01:48AM 51.9500 -106.9167 90° East 320 368 10,700 -1,440 Descending Edmonton Center
01:49AM 51.9500 -106.7667 90° East 290 334 9,400 -1,260 Descending Edmonton Center
01:50AM 51.9500 -106.6667 90° East 260 299 8,200 -1,380 Descending Edmonton Center
01:51AM 51.9500 -106.5833 90° East 240 276 6,700 -1,740 Descending Edmonton Center
01:52AM 52.0000 -106.5833 360° North 200 230 4,800 -1,440 Descending Edmonton Center
01:53AM 52.0500 -106.6167 338° Northwest 170 196 3,900 -1,020 Descending Edmonton Center
01:54AM 52.0833 -106.6333 343° North 170 196 2,800 -960 Descending Edmonton Center
01:55AM 52.1167 -106.7000 309° West 130 150 2,000 -840 Descending Edmonton Center